Latest Weather Observations for Dennes Point

IDT60901

Issued at 2:51 pm EDT Monday 8 March 2021 (issued every 10 minutes, with the page automatically refreshed every 10 minutes)

About weather observations | Map of Hobart area stations | Latest observations for Hobart area | Other Formats
Station Details ID: 094255 Name: DENNES POINT Lat: -43.06 Lon: 147.36 Height: 5.67 m
Data from the previous 72 hours. | See also: Recent months at Dennes Point
Date/Time
EDT
Temp
°C
App
Temp
°C
Dew
Point
°C
Rel
Hum
%
Delta-T
°C
Wind Press
QNH
hPa
Press
MSL
hPa
Rain since
9am
mm
Dir  Spd
km/h
Gust
km/h
Spd
kts
Gust
kts
08/02:30pm 17.8 16.0 12.0 69 3.2 ESE 13 19 7 10 1008.9 1008.8 0.0
08/02:00pm 17.3 15.5 12.0 71 2.9 ESE 13 17 7 9 1009.1 1009.0 0.0
08/01:30pm 18.4 16.7 12.4 68 3.3 ESE 13 17 7 9 1009.3 1009.2 0.0
08/01:00pm 17.3 15.5 12.0 71 2.9 ESE 13 15 7 8 1009.6 1009.5 0.0
08/12:30pm 18.0 16.3 12.5 70 3.1 ESE 13 17 7 9 1009.9 1009.8 0.0
08/12:00pm 17.8 17.0 12.9 73 2.7 ESE 9 13 5 7 1010.2 1010.1 0.0
08/11:30am 18.3 17.5 13.0 71 3.0 ENE 9 11 5 6 1010.6 1010.5 0.0
08/11:00am 18.0 17.6 12.9 72 2.9 ENE 7 9 4 5 1010.7 1010.6 0.0
08/10:30am 17.1 16.8 12.6 75 2.5 ENE 6 6 3 3 1010.9 1010.8 0.0
08/10:00am 16.0 15.9 12.0 77 2.2 NNE 4 6 2 3 1010.9 1010.8 0.0
08/09:30am 15.5 14.8 11.9 79 2.0 WSW 7 9 4 5 1010.9 1010.8 0.0
08/09:00am 14.8 14.1 12.1 84 1.5 SSW 7 11 4 6 1010.8 1010.7 0.0
08/08:30am 14.1 13.6 12.1 88 1.1 SW 6 7 3 4 1010.8 1010.7 0.0
08/08:00am 13.4 12.7 12.1 92 0.7 SW 7 9 4 5 1010.6 1010.5 0.0
08/07:30am 12.9 12.1 11.6 92 0.7 SW 7 11 4 6 1010.4 1010.3 0.0
08/07:00am 12.4 11.3 10.8 90 0.8 SW 7 9 4 5 1010.0 1009.9 0.0
08/06:30am 12.8 12.0 10.9 88 1.0 SSW 6 6 3 3 1009.8 1009.7 0.0
08/06:00am 13.0 12.5 10.9 87 1.1 S 4 6 2 3 1009.7 1009.6 0.0
08/05:30am 13.5 12.7 11.0 85 1.3 SSW 6 6 3 3 1009.6 1009.5 0.0
08/05:00am 13.9 13.5 11.2 84 1.4 SSW 4 6 2 3 1009.6 1009.5 0.0
08/04:30am 14.0 13.3 11.3 84 1.4 SSW 6 7 3 4 1009.8 1009.7 0.0
08/04:00am 14.1 13.8 11.4 84 1.4 SSW 4 4 2 2 1010.1 1010.0 0.0
08/03:30am 14.1 13.8 11.4 84 1.4 SSW 4 6 2 3 1010.1 1010.0 0.0
08/03:00am 13.9 14.3 11.1 83 1.5 CALM 0 0 0 0 1010.3 1010.2 0.0
08/02:30am 14.0 14.0 11.2 83 1.5 S 2 4 1 2 1010.4 1010.3 0.0
08/02:00am 14.4 14.8 11.2 81 1.7 CALM 0 0 0 0 1010.5 1010.4 0.0
08/01:30am 14.4 14.4 11.2 81 1.7 S 2 4 1 2 1010.8 1010.7 0.0
08/01:00am 14.4 14.4 11.2 81 1.7 SSE 2 4 1 2 1010.9 1010.8 0.0
08/12:30am 14.6 15.0 11.2 80 1.8 CALM 0 2 0 1 1011.1 1011.0 0.0
08/12:00am 14.5 14.9 11.1 80 1.8 CALM 0 4 0 2 1011.2 1011.1 0.0
 
Date/Time
EDT
Temp
°C
App
Temp
°C
Dew
Point
°C
Rel
Hum
%
Delta-T
°C
Wind Press
QNH
hPa
Press
MSL
hPa
Rain since
9am
mm
Dir  Spd
km/h
Gust
km/h
Spd
kts
Gust
kts
07/11:30pm 14.6 15.0 11.2 80 1.8 CALM 0 0 0 0 1011.3 1011.2 0.0
07/11:00pm 14.7 15.1 11.1 79 1.9 CALM 0 4 0 2 1011.4 1011.3 0.0
07/10:30pm 14.8 15.2 11.2 79 1.9 CALM 0 4 0 2 1011.7 1011.6 0.0
07/10:00pm 14.8 14.4 11.0 78 2.0 S 4 6 2 3 1011.6 1011.5 0.0
07/09:30pm 14.9 13.9 11.1 78 2.0 SE 7 11 4 6 1011.5 1011.4 0.0
07/09:00pm 14.9 13.1 10.9 77 2.1 SE 11 17 6 9 1011.3 1011.2 0.0
07/08:30pm 15.0 14.0 11.0 77 2.1 SE 7 11 4 6 1011.2 1011.1 0.0
07/08:00pm 15.0 13.1 10.6 75 2.3 ESE 11 19 6 10 1010.7 1010.6 0.0
07/07:30pm 15.0 12.7 10.6 75 2.3 ESE 13 19 7 10 1010.6 1010.5 0.0
07/07:00pm 15.1 13.2 10.5 74 2.4 ESE 11 17 6 9 1010.5 1010.4 0.0
07/06:30pm 15.5 12.8 10.5 72 2.6 ESE 15 20 8 11 1010.4 1010.3 0.0
07/06:00pm 15.9 12.7 10.0 68 3.1 ESE 17 22 9 12 1010.3 1010.2 0.0
07/05:30pm 16.4 13.3 10.3 67 3.2 ESE 17 22 9 12 1010.1 1010.0 0.0
07/05:00pm 16.0 12.6 10.5 70 2.9 ESE 19 22 10 12 1009.9 1009.8 0.0
07/04:30pm 15.6 12.1 10.2 70 2.8 ESE 19 24 10 13 1010.0 1009.9 0.0
07/04:00pm 15.6 12.1 10.2 70 2.8 ESE 19 24 10 13 1010.2 1010.1 0.0
07/03:30pm 15.9 12.9 10.7 71 2.8 ESE 17 24 9 13 1010.3 1010.2 0.0
07/03:00pm 15.7 12.2 10.2 70 2.9 ESE 19 24 10 13 1010.6 1010.5 0.0
07/02:30pm 16.7 12.9 9.9 64 3.6 ESE 20 26 11 14 1010.8 1010.7 0.0
07/02:00pm 16.8 13.6 11.1 69 3.1 ESE 19 26 10 14 1011.1 1011.0 0.0
07/01:30pm 15.8 12.0 9.9 68 3.1 ESE 20 26 11 14 1011.2 1011.1 0.0
07/01:00pm 18.2 16.5 11.3 64 3.8 E 11 15 6 8 1011.6 1011.5 0.0
07/12:30pm 17.3 14.9 10.2 63 3.8 E 13 15 7 8 1011.6 1011.5 0.0
07/12:00pm 17.6 16.5 10.0 61 4.0 NE 6 7 3 4 1011.8 1011.7 0.0
07/11:30am 15.4 14.2 9.5 68 3.0 NNE 6 6 3 3 1012.1 1012.0 0.0
07/11:00am 15.1 14.0 9.9 71 2.7 NNE 6 6 3 3 1012.2 1012.1 0.0
07/10:30am 14.8 14.0 9.8 72 2.6 NW 4 6 2 3 1012.4 1012.3 0.0
07/10:00am 13.5 12.2 9.2 75 2.2 WSW 6 7 3 4 1012.5 1012.4 0.0
07/09:30am 13.1 12.2 9.2 77 2.0 SW 4 6 2 3 1012.4 1012.3 0.0
07/09:00am 12.5 11.6 9.3 81 1.6 S 4 6 2 3 1012.4 1012.3 0.0
07/08:30am 11.7 11.1 9.1 84 1.3 SSW 2 6 1 3 1012.7 1012.6 0.0
07/08:00am 11.3 9.8 9.0 86 1.1 S 7 9 4 5 1012.8 1012.7 0.0
07/07:30am 10.8 9.2 8.6 86 1.1 S 7 7 4 4 1012.7 1012.6 0.0
07/07:00am 10.0 7.5 8.3 89 0.8 SSW 11 13 6 7 1012.6 1012.5 0.0
07/06:30am 9.7 7.2 8.0 89 0.8 S 11 13 6 7 1012.4 1012.3 0.0
07/06:00am 9.8 7.3 8.2 90 0.8 S 11 13 6 7 1012.4 1012.3 0.0
07/05:30am 9.8 7.7 8.2 90 0.8 S 9 11 5 6 1012.4 1012.3 0.0
07/05:00am 9.9 7.8 8.3 90 0.8 SSW 9 11 5 6 1012.7 1012.6 0.0
07/04:30am 10.0 8.2 8.1 88 0.9 SSW 7 9 4 5 1012.9 1012.8 0.0
07/04:00am 10.4 8.8 8.0 85 1.2 SSW 6 7 3 4 1013.1 1013.0 0.0
07/03:30am 10.2 8.6 7.8 85 1.2 SSW 6 6 3 3 1013.3 1013.2 0.0
07/03:00am 10.2 8.5 8.3 88 0.9 S 7 9 4 5 1013.5 1013.4 0.0
07/02:30am 10.3 8.3 8.6 89 0.8 SSW 9 9 5 5 1013.9 1013.8 0.0
07/02:00am 10.2 8.1 8.3 88 0.9 SSW 9 9 5 5 1014.2 1014.1 0.0
07/01:30am 10.3 8.6 8.4 88 0.9 SSW 7 9 4 5 1014.4 1014.3 0.0
07/01:00am 10.3 8.5 8.1 86 1.1 SSW 7 9 4 5 1014.7 1014.6 0.0
07/12:30am 10.4 8.8 7.8 84 1.3 SSW 6 6 3 3 1015.0 1014.9 0.0
07/12:00am 10.6 9.7 7.8 83 1.3 S 2 4 1 2 1015.3 1015.2 0.0
 
Date/Time
EDT
Temp
°C
App
Temp
°C
Dew
Point
°C
Rel
Hum
%
Delta-T
°C
Wind Press
QNH
hPa
Press
MSL
hPa
Rain since
9am
mm
Dir  Spd
km/h
Gust
km/h
Spd
kts
Gust
kts
06/11:30pm 11.0 10.4 7.3 78 1.8 CALM 0 0 0 0 1015.7 1015.6 0.0
06/11:00pm 11.3 9.6 7.4 77 1.9 S 6 9 3 5 1016.0 1015.9 0.0
06/10:30pm 10.9 8.9 7.2 78 1.8 SSW 7 9 4 5 1016.0 1015.9 0.0
06/10:00pm 11.4 9.5 6.7 73 2.2 SSW 6 7 3 4 1015.8 1015.7 0.0
06/09:30pm 12.3 10.8 7.0 70 2.5 SW 4 6 2 3 1015.5 1015.4 0.0
06/09:00pm 12.7 10.9 7.0 68 2.7 S 6 9 3 5 1015.3 1015.2 0.0
06/08:30pm 12.9 10.5 7.1 68 2.8 SSW 9 15 5 8 1015.0 1014.9 0.0
06/08:00pm 13.1 10.7 7.1 67 2.9 SSW 9 17 5 9 1015.0 1014.9 0.0
06/07:30pm 13.3 10.5 6.9 65 3.1 SSW 11 17 6 9 1015.1 1015.0 0.0
06/07:00pm 13.8 11.4 6.9 63 3.3 SSW 9 20 5 11 1014.7 1014.6 0.0
06/06:30pm 14.3 10.7 6.6 60 3.7 SSW 15 28 8 15 1014.8 1014.7 0.0
06/06:00pm 14.7 11.0 6.5 58 4.0 S 15 28 8 15 1014.7 1014.6 0.0
06/05:30pm 15.4 12.1 6.2 54 4.4 S 13 22 7 12 1014.7 1014.6 0.0
06/05:00pm 16.4 11.3 6.2 51 5.0 S 22 32 12 17 1014.5 1014.4 0.0
06/04:30pm 16.9 12.0 6.7 51 5.0 S 22 33 12 18 1014.4 1014.3 0.0
06/04:00pm 16.9 12.5 6.4 50 5.1 S 19 30 10 16 1014.5 1014.4 0.0
06/03:30pm 16.8 12.0 7.2 53 4.8 S 22 33 12 18 1014.5 1014.4 0.0
06/03:00pm 17.6 12.8 7.4 51 5.1 S 22 35 12 19 1014.6 1014.5 0.0
06/02:30pm 17.6 13.6 6.8 49 5.4 S 17 26 9 14 1014.9 1014.8 0.0
06/02:00pm 17.1 13.7 5.7 47 5.5 SSW 13 22 7 12 1015.0 1014.9 0.0
06/01:30pm 17.1 13.3 5.7 47 5.5 SW 15 22 8 12 1015.1 1015.0 0.0
06/01:00pm 15.7 11.9 5.9 52 4.7 SW 15 20 8 11 1015.3 1015.2 0.0
06/12:30pm 15.2 11.5 6.2 55 4.3 SW 15 19 8 10 1015.5 1015.4 0.0
06/12:00pm 14.9 11.3 6.7 58 4.0 SW 15 22 8 12 1015.6 1015.5 0.0
06/11:30am 14.2 10.2 6.6 60 3.7 SW 17 20 9 11 1015.8 1015.7 0.0
06/11:00am 13.8 9.9 7.1 64 3.3 WSW 17 24 9 13 1015.8 1015.7 0.0
06/10:30am 12.3 9.1 7.0 70 2.5 SW 13 20 7 11 1016.0 1015.9 0.0
06/10:00am 12.0 8.2 7.5 74 2.2 SW 17 24 9 13 1015.9 1015.8 0.0
06/09:30am 12.4 7.5 7.1 70 2.6 WSW 22 30 12 16 1015.5 1015.4 0.0
06/09:00am 11.9 9.5 6.8 71 2.4 SW 9 15 5 8 1015.4 1015.3 0.0
06/08:30am 11.7 8.4 6.6 71 2.4 WSW 13 19 7 10 1015.4 1015.3 0.0
06/08:00am 11.5 7.4 6.2 70 2.5 WSW 17 20 9 11 1015.0 1014.9 0.0
06/07:30am 11.3 7.7 6.6 73 2.2 SW 15 20 8 11 1014.8 1014.7 0.0
06/07:00am 11.3 7.3 6.6 73 2.2 SW 17 26 9 14 1014.6 1014.5 0.0
06/06:30am 11.4 6.0 6.5 72 2.3 SW 24 37 13 20 1014.5 1014.4 0.0
06/06:00am 11.8 7.3 6.1 68 2.7 SW 19 28 10 15 1014.3 1014.2 0.0
06/05:30am 11.8 7.1 6.1 68 2.7 SW 20 32 11 17 1014.1 1014.0 0.0
06/05:00am 11.7 6.6 6.2 69 2.6 WSW 22 32 12 17 1014.0 1013.9 0.0
06/04:30am 11.4 6.8 6.7 73 2.2 WSW 20 28 11 15 1014.0 1013.9 0.0
06/04:00am 11.7 6.5 7.2 74 2.2 WSW 24 30 13 16 1014.0 1013.9 0.0
06/03:30am 11.4 6.5 7.1 75 2.1 SW 22 33 12 18 1014.0 1013.9 0.0
06/03:00am 11.3 6.7 6.6 73 2.2 SW 20 32 11 17 1014.2 1014.1 0.0
06/02:30am 11.3 6.9 6.4 72 2.3 SW 19 24 10 13 1014.2 1014.1 0.0
06/02:00am 11.5 5.5 7.2 75 2.1 SW 28 39 15 21 1014.4 1014.3 0.0
06/01:30am 11.6 5.9 6.7 72 2.3 SW 26 39 14 21 1014.4 1014.3 0.0
06/01:00am 12.1 6.6 5.9 66 2.9 SW 24 37 13 20 1014.4 1014.3 0.0
06/12:30am 11.9 6.8 5.8 66 2.8 SW 22 32 12 17 1014.7 1014.6 0.0
06/12:00am 12.2 7.4 5.6 64 3.1 SW 20 28 11 15 1014.5 1014.4 0.0
 
Date/Time
EDT
Temp
°C
App
Temp
°C
Dew
Point
°C
Rel
Hum
%
Delta-T
°C
Wind Press
QNH
hPa
Press
MSL
hPa
Rain since
9am
mm
Dir  Spd
km/h
Gust
km/h
Spd
kts
Gust
kts
05/11:42pm 12.2 5.7 4.9 61 3.3 SW 28 48 15 26 1014.5 1014.4 0.0
05/11:30pm 12.3 6.7 5.2 62 3.3 SW 24 35 13 19 1014.6 1014.5 0.0
05/11:00pm 12.4 6.4 5.3 62 3.3 SW 26 43 14 23 1014.5 1014.4 0.0
05/10:30pm 12.4 5.9 4.9 60 3.4 SW 28 44 15 24 1014.5 1014.4 0.0
05/10:00pm 12.3 5.7 5.9 65 3.0 SW 30 46 16 25 1014.6 1014.5 0.0
05/09:30pm 12.3 6.0 5.5 63 3.2 SW 28 50 15 27 1014.3 1014.2 0.0
05/09:00pm 12.3 6.3 5.2 62 3.3 SW 26 43 14 23 1014.1 1014.0 0.0
05/08:30pm 12.2 5.8 5.4 63 3.2 SW 28 41 15 22 1014.0 1013.9 0.0
05/08:00pm 12.2 5.8 5.1 62 3.3 SW 28 41 15 22 1013.9 1013.8 0.0
05/07:30pm 11.9 6.1 4.6 61 3.3 SSW 24 39 13 21 1013.8 1013.7 0.0
05/07:00pm 12.4 6.4 3.6 55 3.9 SSW 24 33 13 18 1013.5 1013.4 0.0
05/06:30pm 12.9 6.1 3.3 52 4.3 SW 28 41 15 22 1013.1 1013.0 0.0
05/06:10pm 13.2 6.4 3.3 51 4.4 SW 28 50 15 27 1012.8 1012.7 0.0
05/06:00pm 13.3 7.0 3.9 53 4.3 SW 26 50 14 27 1012.9 1012.8 0.0
05/05:51pm 13.3 6.6 3.9 53 4.3 SW 28 50 15 27 1012.7 1012.6 0.0
05/05:30pm 13.2 6.1 3.8 53 4.2 SW 30 41 16 22 1012.6 1012.5 0.0
05/05:06pm 13.8 7.0 3.0 48 4.8 SW 28 48 15 26 1012.4 1012.3 0.0
05/05:00pm 13.8 7.5 3.9 51 4.5 SSW 26 39 14 21 1012.4 1012.3 0.0
05/04:30pm 13.7 7.9 4.3 53 4.3 SW 24 41 13 22 1012.1 1012.0 0.0
05/04:00pm 14.1 7.7 5.2 55 4.2 SW 28 44 15 24 1012.1 1012.0 0.0
05/03:30pm 14.7 7.4 4.7 51 4.7 SW 32 48 17 26 1011.9 1011.8 0.0
05/03:21pm 15.3 8.9 5.0 50 4.8 SSW 28 48 15 26 1012.0 1011.9 0.0
05/03:00pm 14.4 7.5 4.7 52 4.5 SW 30 44 16 24 1011.9 1011.8 0.0

Latest Capital City Observations: Canberra | Sydney | Melbourne | Brisbane | Adelaide | Perth | Hobart | Darwin

Other formats

Comma delimited format used in spreadsheet applications
http://www.bom.gov.au/fwo/IDT60901/IDT60901.94988.axf

JavaScript Object Notation format (JSON) in row-major order
http://www.bom.gov.au/fwo/IDT60901/IDT60901.94988.json

Data quality

Most of these data are generated automatically and are frequently updated. Quality checks on data are not normally performed. It is possible for incorrect values to appear. Refer to information at About Latest Weather Observations and please check the disclaimer before using these data.